sensor_id;sensor_type;location;lat;lon;timestamp;P1;durP1;ratioP1;P2;durP2;ratioP2
30173;SDS011;16985;50.814;8.530;2022-12-18T00:01:26;78.70;;;29.83;;
30173;SDS011;16985;50.814;8.530;2022-12-18T00:03:56;67.38;;;28.77;;
30173;SDS011;16985;50.814;8.530;2022-12-18T00:06:23;62.90;;;28.08;;
30173;SDS011;16985;50.814;8.530;2022-12-18T00:11:18;54.38;;;24.48;;
30173;SDS011;16985;50.814;8.530;2022-12-18T00:13:46;60.67;;;27.25;;
30173;SDS011;16985;50.814;8.530;2022-12-18T00:16:16;56.47;;;24.55;;
30173;SDS011;16985;50.814;8.530;2022-12-18T00:18:46;57.80;;;26.25;;
30173;SDS011;16985;50.814;8.530;2022-12-18T00:21:20;59.53;;;25.92;;
30173;SDS011;16985;50.814;8.530;2022-12-18T00:23:47;60.20;;;25.20;;
30173;SDS011;16985;50.814;8.530;2022-12-18T00:26:19;54.70;;;24.10;;
30173;SDS011;16985;50.814;8.530;2022-12-18T00:28:51;53.47;;;24.42;;
30173;SDS011;16985;50.814;8.530;2022-12-18T00:31:19;58.35;;;25.00;;
30173;SDS011;16985;50.814;8.530;2022-12-18T00:33:47;54.83;;;25.30;;
30173;SDS011;16985;50.814;8.530;2022-12-18T00:36:15;56.42;;;24.60;;
30173;SDS011;16985;50.814;8.530;2022-12-18T00:38:44;63.95;;;25.73;;
30173;SDS011;16985;50.814;8.530;2022-12-18T00:41:11;63.30;;;26.38;;
30173;SDS011;16985;50.814;8.530;2022-12-18T00:43:59;57.03;;;25.40;;
30173;SDS011;16985;50.814;8.530;2022-12-18T00:46:25;58.97;;;26.77;;
30173;SDS011;16985;50.814;8.530;2022-12-18T00:48:51;58.95;;;28.08;;
30173;SDS011;16985;50.814;8.530;2022-12-18T00:51:17;65.65;;;29.05;;
30173;SDS011;16985;50.814;8.530;2022-12-18T00:53:43;73.40;;;30.15;;
30173;SDS011;16985;50.814;8.530;2022-12-18T00:56:08;80.70;;;31.02;;
30173;SDS011;16985;50.814;8.530;2022-12-18T00:58:34;65.80;;;28.13;;
30173;SDS011;16985;50.814;8.530;2022-12-18T01:01:03;64.50;;;27.27;;
30173;SDS011;16985;50.814;8.530;2022-12-18T01:03:32;68.15;;;26.98;;
30173;SDS011;16985;50.814;8.530;2022-12-18T01:05:58;57.83;;;27.08;;
30173;SDS011;16985;50.814;8.530;2022-12-18T01:08:24;62.15;;;24.70;;
30173;SDS011;16985;50.814;8.530;2022-12-18T01:10:50;56.42;;;24.35;;
30173;SDS011;16985;50.814;8.530;2022-12-18T01:13:16;57.95;;;24.10;;
30173;SDS011;16985;50.814;8.530;2022-12-18T01:15:48;53.65;;;24.15;;
30173;SDS011;16985;50.814;8.530;2022-12-18T01:18:15;48.47;;;24.70;;
30173;SDS011;16985;50.814;8.530;2022-12-18T01:20:41;57.40;;;24.95;;
30173;SDS011;16985;50.814;8.530;2022-12-18T01:23:07;55.35;;;24.85;;
30173;SDS011;16985;50.814;8.530;2022-12-18T01:25:35;58.75;;;25.65;;
30173;SDS011;16985;50.814;8.530;2022-12-18T01:28:01;58.22;;;24.50;;
30173;SDS011;16985;50.814;8.530;2022-12-18T01:30:28;44.50;;;22.70;;
30173;SDS011;16985;50.814;8.530;2022-12-18T01:32:53;51.50;;;25.05;;
30173;SDS011;16985;50.814;8.530;2022-12-18T01:35:19;52.72;;;24.30;;
30173;SDS011;16985;50.814;8.530;2022-12-18T01:37:45;49.15;;;21.45;;
30173;SDS011;16985;50.814;8.530;2022-12-18T01:40:11;49.47;;;21.98;;
30173;SDS011;16985;50.814;8.530;2022-12-18T01:42:38;50.03;;;22.88;;
30173;SDS011;16985;50.814;8.530;2022-12-18T01:47:57;60.95;;;25.13;;
30173;SDS011;16985;50.814;8.530;2022-12-18T01:50:32;63.88;;;29.55;;
30173;SDS011;16985;50.814;8.530;2022-12-18T01:53:10;64.85;;;27.05;;
30173;SDS011;16985;50.814;8.530;2022-12-18T01:55:40;63.80;;;28.75;;
30173;SDS011;16985;50.814;8.530;2022-12-18T01:58:20;69.68;;;29.30;;
30173;SDS011;16985;50.814;8.530;2022-12-18T02:00:58;61.70;;;27.20;;
30173;SDS011;16985;50.814;8.530;2022-12-18T02:03:24;54.80;;;26.70;;
30173;SDS011;16985;50.814;8.530;2022-12-18T02:05:53;57.00;;;25.60;;
30173;SDS011;16985;50.814;8.530;2022-12-18T02:08:47;57.05;;;24.20;;
30173;SDS011;16985;50.814;8.530;2022-12-18T02:17:16;54.75;;;24.38;;
30173;SDS011;16985;50.814;8.530;2022-12-18T02:28:19;56.50;;;23.80;;
30173;SDS011;16985;50.814;8.530;2022-12-18T02:30:52;50.60;;;24.98;;
30173;SDS011;16985;50.814;8.530;2022-12-18T02:33:21;51.13;;;24.20;;
30173;SDS011;16985;50.814;8.530;2022-12-18T02:35:50;58.08;;;23.77;;
30173;SDS011;16985;50.814;8.530;2022-12-18T02:38:19;61.58;;;25.83;;
30173;SDS011;16985;50.814;8.530;2022-12-18T02:40:48;58.35;;;25.55;;
30173;SDS011;16985;50.814;8.530;2022-12-18T02:43:16;52.88;;;26.60;;
30173;SDS011;16985;50.814;8.530;2022-12-18T02:45:50;63.00;;;25.85;;
30173;SDS011;16985;50.814;8.530;2022-12-18T02:48:25;53.90;;;24.90;;
30173;SDS011;16985;50.814;8.530;2022-12-18T02:53:50;49.10;;;22.95;;
30173;SDS011;16985;50.814;8.530;2022-12-18T02:56:34;50.80;;;22.98;;
30173;SDS011;16985;50.814;8.530;2022-12-18T02:59:14;54.47;;;24.20;;
30173;SDS011;16985;50.814;8.530;2022-12-18T03:01:54;47.28;;;22.30;;
30173;SDS011;16985;50.814;8.530;2022-12-18T03:04:47;48.97;;;22.73;;
30173;SDS011;16985;50.814;8.530;2022-12-18T03:07:33;53.08;;;23.35;;
30173;SDS011;16985;50.814;8.530;2022-12-18T03:10:12;51.95;;;24.35;;
30173;SDS011;16985;50.814;8.530;2022-12-18T03:12:51;46.45;;;23.33;;
30173;SDS011;16985;50.814;8.530;2022-12-18T03:15:33;47.88;;;23.00;;
30173;SDS011;16985;50.814;8.530;2022-12-18T03:18:16;53.03;;;25.17;;
30173;SDS011;16985;50.814;8.530;2022-12-18T03:20:47;47.45;;;24.23;;
30173;SDS011;16985;50.814;8.530;2022-12-18T03:23:21;55.13;;;24.20;;
30173;SDS011;16985;50.814;8.530;2022-12-18T03:25:53;43.22;;;21.90;;
30173;SDS011;16985;50.814;8.530;2022-12-18T03:28:24;46.20;;;23.55;;
30173;SDS011;16985;50.814;8.530;2022-12-18T03:30:59;57.25;;;24.33;;
30173;SDS011;16985;50.814;8.530;2022-12-18T03:36:43;48.42;;;22.88;;
30173;SDS011;16985;50.814;8.530;2022-12-18T03:39:09;52.05;;;24.17;;
30173;SDS011;16985;50.814;8.530;2022-12-18T03:41:40;45.90;;;25.38;;
30173;SDS011;16985;50.814;8.530;2022-12-18T03:52:20;51.17;;;24.75;;
30173;SDS011;16985;50.814;8.530;2022-12-18T03:54:56;46.30;;;23.67;;
30173;SDS011;16985;50.814;8.530;2022-12-18T03:57:25;52.35;;;25.13;;
30173;SDS011;16985;50.814;8.530;2022-12-18T03:59:56;51.45;;;23.10;;
30173;SDS011;16985;50.814;8.530;2022-12-18T04:02:40;53.42;;;24.70;;
30173;SDS011;16985;50.814;8.530;2022-12-18T04:05:21;45.08;;;20.08;;
30173;SDS011;16985;50.814;8.530;2022-12-18T04:07:49;42.25;;;21.38;;
30173;SDS011;16985;50.814;8.530;2022-12-18T04:10:17;44.58;;;22.60;;
30173;SDS011;16985;50.814;8.530;2022-12-18T04:12:44;49.35;;;22.17;;
30173;SDS011;16985;50.814;8.530;2022-12-18T04:15:11;48.20;;;23.57;;
30173;SDS011;16985;50.814;8.530;2022-12-18T04:17:38;55.90;;;22.83;;
30173;SDS011;16985;50.814;8.530;2022-12-18T04:20:11;50.28;;;21.73;;
30173;SDS011;16985;50.814;8.530;2022-12-18T04:22:41;48.38;;;22.02;;
30173;SDS011;16985;50.814;8.530;2022-12-18T04:25:08;45.25;;;22.10;;
30173;SDS011;16985;50.814;8.530;2022-12-18T04:27:38;40.53;;;22.67;;
30173;SDS011;16985;50.814;8.530;2022-12-18T04:30:05;49.28;;;21.98;;
30173;SDS011;16985;50.814;8.530;2022-12-18T04:32:33;45.63;;;23.27;;
30173;SDS011;16985;50.814;8.530;2022-12-18T04:34:59;49.15;;;24.45;;
30173;SDS011;16985;50.814;8.530;2022-12-18T04:37:25;45.20;;;22.38;;
30173;SDS011;16985;50.814;8.530;2022-12-18T04:39:51;46.08;;;20.92;;
30173;SDS011;16985;50.814;8.530;2022-12-18T04:42:24;47.40;;;22.63;;
30173;SDS011;16985;50.814;8.530;2022-12-18T04:44:50;52.85;;;22.38;;
30173;SDS011;16985;50.814;8.530;2022-12-18T04:47:15;48.20;;;22.58;;
30173;SDS011;16985;50.814;8.530;2022-12-18T04:49:41;43.30;;;22.48;;
30173;SDS011;16985;50.814;8.530;2022-12-18T04:52:07;49.22;;;22.75;;
30173;SDS011;16985;50.814;8.530;2022-12-18T04:54:33;48.65;;;21.88;;
30173;SDS011;16985;50.814;8.530;2022-12-18T04:56:59;45.78;;;22.70;;
30173;SDS011;16985;50.814;8.530;2022-12-18T04:59:25;47.15;;;21.10;;
30173;SDS011;16985;50.814;8.530;2022-12-18T05:01:51;44.97;;;23.25;;
30173;SDS011;16985;50.814;8.530;2022-12-18T05:04:17;52.22;;;21.92;;
30173;SDS011;16985;50.814;8.530;2022-12-18T05:06:42;50.25;;;24.33;;
30173;SDS011;16985;50.814;8.530;2022-12-18T05:09:08;39.95;;;20.65;;
30173;SDS011;16985;50.814;8.530;2022-12-18T05:11:34;50.15;;;22.58;;
30173;SDS011;16985;50.814;8.530;2022-12-18T05:14:01;50.63;;;21.67;;
30173;SDS011;16985;50.814;8.530;2022-12-18T05:16:27;41.60;;;21.55;;
30173;SDS011;16985;50.814;8.530;2022-12-18T05:18:53;39.58;;;20.67;;
30173;SDS011;16985;50.814;8.530;2022-12-18T05:21:18;43.17;;;21.75;;
30173;SDS011;16985;50.814;8.530;2022-12-18T05:23:44;47.42;;;23.90;;
30173;SDS011;16985;50.814;8.530;2022-12-18T05:26:11;50.95;;;24.52;;
30173;SDS011;16985;50.814;8.530;2022-12-18T05:28:42;51.60;;;21.27;;
30173;SDS011;16985;50.814;8.530;2022-12-18T05:31:08;39.60;;;22.00;;
30173;SDS011;16985;50.814;8.530;2022-12-18T05:33:34;46.53;;;23.08;;
30173;SDS011;16985;50.814;8.530;2022-12-18T05:36:01;48.13;;;21.50;;
30173;SDS011;16985;50.814;8.530;2022-12-18T05:38:29;42.92;;;21.40;;
30173;SDS011;16985;50.814;8.530;2022-12-18T05:40:57;42.58;;;22.15;;
30173;SDS011;16985;50.814;8.530;2022-12-18T05:43:24;48.58;;;22.35;;
30173;SDS011;16985;50.814;8.530;2022-12-18T05:45:51;41.13;;;21.35;;
30173;SDS011;16985;50.814;8.530;2022-12-18T05:48:18;48.30;;;22.15;;
30173;SDS011;16985;50.814;8.530;2022-12-18T05:50:45;45.80;;;21.48;;
30173;SDS011;16985;50.814;8.530;2022-12-18T05:53:16;40.47;;;20.98;;
30173;SDS011;16985;50.814;8.530;2022-12-18T05:55:44;43.28;;;20.48;;
30173;SDS011;16985;50.814;8.530;2022-12-18T05:58:11;42.50;;;21.92;;
30173;SDS011;16985;50.814;8.530;2022-12-18T06:00:39;38.65;;;20.85;;
30173;SDS011;16985;50.814;8.530;2022-12-18T06:03:11;52.22;;;21.92;;
30173;SDS011;16985;50.814;8.530;2022-12-18T06:05:39;41.75;;;20.00;;
30173;SDS011;16985;50.814;8.530;2022-12-18T06:08:08;46.35;;;20.95;;
30173;SDS011;16985;50.814;8.530;2022-12-18T06:10:34;44.60;;;21.45;;
30173;SDS011;16985;50.814;8.530;2022-12-18T06:13:00;45.72;;;21.38;;
30173;SDS011;16985;50.814;8.530;2022-12-18T06:15:26;44.20;;;21.75;;
30173;SDS011;16985;50.814;8.530;2022-12-18T06:17:52;47.90;;;19.25;;
30173;SDS011;16985;50.814;8.530;2022-12-18T06:20:18;44.47;;;20.80;;
30173;SDS011;16985;50.814;8.530;2022-12-18T06:22:44;43.65;;;21.30;;
30173;SDS011;16985;50.814;8.530;2022-12-18T06:25:10;41.72;;;20.67;;
30173;SDS011;16985;50.814;8.530;2022-12-18T06:27:38;40.58;;;19.98;;
30173;SDS011;16985;50.814;8.530;2022-12-18T06:30:04;48.80;;;21.27;;
30173;SDS011;16985;50.814;8.530;2022-12-18T06:32:31;42.63;;;20.73;;
30173;SDS011;16985;50.814;8.530;2022-12-18T06:34:57;44.83;;;21.55;;
30173;SDS011;16985;50.814;8.530;2022-12-18T06:37:23;43.05;;;20.45;;
30173;SDS011;16985;50.814;8.530;2022-12-18T06:39:52;36.50;;;20.58;;
30173;SDS011;16985;50.814;8.530;2022-12-18T06:42:18;39.70;;;19.77;;
30173;SDS011;16985;50.814;8.530;2022-12-18T06:44:44;42.67;;;20.63;;
30173;SDS011;16985;50.814;8.530;2022-12-18T06:47:10;42.65;;;20.63;;
30173;SDS011;16985;50.814;8.530;2022-12-18T06:49:36;45.55;;;21.60;;
30173;SDS011;16985;50.814;8.530;2022-12-18T06:52:01;36.75;;;19.15;;
30173;SDS011;16985;50.814;8.530;2022-12-18T06:54:27;41.38;;;21.33;;
30173;SDS011;16985;50.814;8.530;2022-12-18T06:56:53;41.28;;;21.40;;
30173;SDS011;16985;50.814;8.530;2022-12-18T06:59:19;44.22;;;21.38;;
30173;SDS011;16985;50.814;8.530;2022-12-18T07:01:45;40.42;;;19.88;;
30173;SDS011;16985;50.814;8.530;2022-12-18T07:04:11;46.30;;;21.00;;
30173;SDS011;16985;50.814;8.530;2022-12-18T07:06:36;47.58;;;21.88;;
30173;SDS011;16985;50.814;8.530;2022-12-18T07:09:02;46.45;;;21.10;;
30173;SDS011;16985;50.814;8.530;2022-12-18T07:11:28;40.08;;;20.83;;
30173;SDS011;16985;50.814;8.530;2022-12-18T07:13:54;43.13;;;21.77;;
30173;SDS011;16985;50.814;8.530;2022-12-18T07:16:20;43.92;;;21.92;;
30173;SDS011;16985;50.814;8.530;2022-12-18T07:18:46;32.88;;;17.95;;
30173;SDS011;16985;50.814;8.530;2022-12-18T07:21:16;46.92;;;21.00;;
30173;SDS011;16985;50.814;8.530;2022-12-18T07:23:44;48.45;;;21.20;;
30173;SDS011;16985;50.814;8.530;2022-12-18T07:26:12;42.30;;;20.90;;
30173;SDS011;16985;50.814;8.530;2022-12-18T07:28:41;48.92;;;22.60;;
30173;SDS011;16985;50.814;8.530;2022-12-18T07:31:09;43.17;;;22.63;;
30173;SDS011;16985;50.814;8.530;2022-12-18T07:33:41;51.38;;;22.33;;
30173;SDS011;16985;50.814;8.530;2022-12-18T07:36:09;55.05;;;26.20;;
30173;SDS011;16985;50.814;8.530;2022-12-18T07:38:36;54.55;;;23.70;;
30173;SDS011;16985;50.814;8.530;2022-12-18T07:41:03;53.78;;;25.48;;
30173;SDS011;16985;50.814;8.530;2022-12-18T07:43:31;54.17;;;26.90;;
30173;SDS011;16985;50.814;8.530;2022-12-18T07:45:57;51.20;;;23.15;;
30173;SDS011;16985;50.814;8.530;2022-12-18T07:48:24;50.80;;;23.17;;
30173;SDS011;16985;50.814;8.530;2022-12-18T07:50:49;42.28;;;21.48;;
30173;SDS011;16985;50.814;8.530;2022-12-18T07:53:15;42.88;;;21.00;;
30173;SDS011;16985;50.814;8.530;2022-12-18T07:55:41;43.78;;;21.90;;
30173;SDS011;16985;50.814;8.530;2022-12-18T07:58:07;45.20;;;22.40;;
30173;SDS011;16985;50.814;8.530;2022-12-18T08:00:33;41.97;;;21.25;;
30173;SDS011;16985;50.814;8.530;2022-12-18T08:03:00;42.75;;;21.00;;
30173;SDS011;16985;50.814;8.530;2022-12-18T08:05:26;43.10;;;20.17;;
30173;SDS011;16985;50.814;8.530;2022-12-18T08:07:54;41.65;;;20.05;;
30173;SDS011;16985;50.814;8.530;2022-12-18T08:10:21;45.60;;;22.58;;
30173;SDS011;16985;50.814;8.530;2022-12-18T08:12:50;44.85;;;21.00;;
30173;SDS011;16985;50.814;8.530;2022-12-18T08:15:16;42.35;;;21.45;;
30173;SDS011;16985;50.814;8.530;2022-12-18T08:17:42;43.30;;;21.38;;
30173;SDS011;16985;50.814;8.530;2022-12-18T08:20:08;44.10;;;20.92;;
30173;SDS011;16985;50.814;8.530;2022-12-18T08:22:35;43.70;;;20.27;;
30173;SDS011;16985;50.814;8.530;2022-12-18T08:25:01;39.92;;;19.98;;
30173;SDS011;16985;50.814;8.530;2022-12-18T08:27:28;44.00;;;21.15;;
30173;SDS011;16985;50.814;8.530;2022-12-18T08:29:54;45.53;;;21.50;;
30173;SDS011;16985;50.814;8.530;2022-12-18T08:32:21;45.13;;;20.30;;
30173;SDS011;16985;50.814;8.530;2022-12-18T08:34:46;44.05;;;20.83;;
30173;SDS011;16985;50.814;8.530;2022-12-18T08:37:12;39.15;;;20.90;;
30173;SDS011;16985;50.814;8.530;2022-12-18T08:39:38;52.88;;;25.83;;
30173;SDS011;16985;50.814;8.530;2022-12-18T08:42:04;66.40;;;27.67;;
30173;SDS011;16985;50.814;8.530;2022-12-18T08:44:48;46.75;;;24.17;;
30173;SDS011;16985;50.814;8.530;2022-12-18T08:47:14;57.88;;;28.58;;
30173;SDS011;16985;50.814;8.530;2022-12-18T08:49:40;62.17;;;30.23;;
30173;SDS011;16985;50.814;8.530;2022-12-18T08:52:06;66.43;;;32.45;;
30173;SDS011;16985;50.814;8.530;2022-12-18T08:54:32;61.42;;;29.15;;
30173;SDS011;16985;50.814;8.530;2022-12-18T08:56:57;57.90;;;27.73;;
30173;SDS011;16985;50.814;8.530;2022-12-18T08:59:23;56.38;;;27.42;;
30173;SDS011;16985;50.814;8.530;2022-12-18T09:01:49;61.78;;;28.30;;
30173;SDS011;16985;50.814;8.530;2022-12-18T09:04:15;54.17;;;27.15;;
30173;SDS011;16985;50.814;8.530;2022-12-18T09:06:41;64.10;;;28.27;;
30173;SDS011;16985;50.814;8.530;2022-12-18T09:09:07;55.10;;;26.17;;
30173;SDS011;16985;50.814;8.530;2022-12-18T09:11:34;46.25;;;22.23;;
30173;SDS011;16985;50.814;8.530;2022-12-18T09:14:00;52.25;;;24.48;;
30173;SDS011;16985;50.814;8.530;2022-12-18T09:16:27;43.60;;;24.33;;
30173;SDS011;16985;50.814;8.530;2022-12-18T09:18:55;48.72;;;24.38;;
30173;SDS011;16985;50.814;8.530;2022-12-18T09:21:25;47.35;;;23.00;;
30173;SDS011;16985;50.814;8.530;2022-12-18T09:23:54;46.92;;;23.33;;
30173;SDS011;16985;50.814;8.530;2022-12-18T09:26:21;44.90;;;23.30;;
30173;SDS011;16985;50.814;8.530;2022-12-18T09:28:48;50.85;;;23.73;;
30173;SDS011;16985;50.814;8.530;2022-12-18T09:31:15;48.20;;;25.38;;
30173;SDS011;16985;50.814;8.530;2022-12-18T09:33:44;52.28;;;24.50;;
30173;SDS011;16985;50.814;8.530;2022-12-18T09:36:11;49.08;;;25.63;;
30173;SDS011;16985;50.814;8.530;2022-12-18T09:38:40;56.42;;;24.55;;
30173;SDS011;16985;50.814;8.530;2022-12-18T09:43:51;44.70;;;24.65;;
30173;SDS011;16985;50.814;8.530;2022-12-18T09:46:25;53.80;;;24.52;;
30173;SDS011;16985;50.814;8.530;2022-12-18T09:48:57;56.83;;;26.33;;
30173;SDS011;16985;50.814;8.530;2022-12-18T09:51:29;62.50;;;24.50;;
30173;SDS011;16985;50.814;8.530;2022-12-18T09:54:03;48.50;;;24.38;;
30173;SDS011;16985;50.814;8.530;2022-12-18T09:56:40;46.47;;;25.40;;
30173;SDS011;16985;50.814;8.530;2022-12-18T09:59:14;50.25;;;24.13;;
30173;SDS011;16985;50.814;8.530;2022-12-18T10:01:46;41.63;;;23.88;;
30173;SDS011;16985;50.814;8.530;2022-12-18T10:04:12;44.17;;;24.73;;
30173;SDS011;16985;50.814;8.530;2022-12-18T10:15:41;47.17;;;22.55;;
30173;SDS011;16985;50.814;8.530;2022-12-18T10:21:28;45.50;;;23.15;;
30173;SDS011;16985;50.814;8.530;2022-12-18T10:24:12;43.50;;;22.75;;
30173;SDS011;16985;50.814;8.530;2022-12-18T10:26:55;44.15;;;22.55;;
30173;SDS011;16985;50.814;8.530;2022-12-18T10:29:36;52.25;;;23.08;;
30173;SDS011;16985;50.814;8.530;2022-12-18T10:32:03;52.08;;;23.23;;
30173;SDS011;16985;50.814;8.530;2022-12-18T10:34:28;45.03;;;22.80;;
30173;SDS011;16985;50.814;8.530;2022-12-18T10:36:55;48.17;;;23.70;;
30173;SDS011;16985;50.814;8.530;2022-12-18T10:39:22;50.47;;;23.65;;
30173;SDS011;16985;50.814;8.530;2022-12-18T10:41:51;50.53;;;23.55;;
30173;SDS011;16985;50.814;8.530;2022-12-18T10:44:18;46.00;;;23.92;;
30173;SDS011;16985;50.814;8.530;2022-12-18T10:46:48;62.47;;;25.95;;
30173;SDS011;16985;50.814;8.530;2022-12-18T10:49:25;47.67;;;24.63;;
30173;SDS011;16985;50.814;8.530;2022-12-18T10:54:57;56.53;;;25.70;;
30173;SDS011;16985;50.814;8.530;2022-12-18T10:57:35;51.55;;;26.02;;
30173;SDS011;16985;50.814;8.530;2022-12-18T11:02:50;47.70;;;24.27;;
30173;SDS011;16985;50.814;8.530;2022-12-18T11:07:57;48.72;;;22.35;;
30173;SDS011;16985;50.814;8.530;2022-12-18T11:10:35;45.28;;;20.45;;
30173;SDS011;16985;50.814;8.530;2022-12-18T11:13:21;47.47;;;21.73;;
30173;SDS011;16985;50.814;8.530;2022-12-18T11:15:50;64.35;;;23.67;;
30173;SDS011;16985;50.814;8.530;2022-12-18T11:18:25;45.40;;;21.30;;
30173;SDS011;16985;50.814;8.530;2022-12-18T11:20:55;44.85;;;20.88;;
30173;SDS011;16985;50.814;8.530;2022-12-18T11:23:32;47.85;;;20.80;;
30173;SDS011;16985;50.814;8.530;2022-12-18T11:26:01;47.58;;;20.77;;
30173;SDS011;16985;50.814;8.530;2022-12-18T11:28:34;44.55;;;19.45;;
30173;SDS011;16985;50.814;8.530;2022-12-18T11:31:09;39.70;;;19.10;;
30173;SDS011;16985;50.814;8.530;2022-12-18T11:34:00;35.70;;;18.05;;
30173;SDS011;16985;50.814;8.530;2022-12-18T11:36:48;37.92;;;19.40;;
30173;SDS011;16985;50.814;8.530;2022-12-18T11:39:24;41.65;;;19.33;;
30173;SDS011;16985;50.814;8.530;2022-12-18T11:44:58;39.95;;;18.90;;
30173;SDS011;16985;50.814;8.530;2022-12-18T11:50:13;39.42;;;19.40;;
30173;SDS011;16985;50.814;8.530;2022-12-18T11:52:47;40.03;;;19.90;;
30173;SDS011;16985;50.814;8.530;2022-12-18T11:55:14;36.70;;;19.58;;
30173;SDS011;16985;50.814;8.530;2022-12-18T11:57:57;39.05;;;19.08;;
30173;SDS011;16985;50.814;8.530;2022-12-18T12:00:44;37.80;;;18.58;;
30173;SDS011;16985;50.814;8.530;2022-12-18T12:11:52;34.78;;;17.40;;
30173;SDS011;16985;50.814;8.530;2022-12-18T12:21:13;38.65;;;18.85;;
30173;SDS011;16985;50.814;8.530;2022-12-18T12:24:01;38.28;;;18.80;;
30173;SDS011;16985;50.814;8.530;2022-12-18T12:30:20;34.88;;;17.70;;
30173;SDS011;16985;50.814;8.530;2022-12-18T12:36:21;35.20;;;19.35;;
30173;SDS011;16985;50.814;8.530;2022-12-18T12:39:08;37.30;;;18.40;;
30173;SDS011;16985;50.814;8.530;2022-12-18T12:41:39;37.90;;;19.20;;
30173;SDS011;16985;50.814;8.530;2022-12-18T12:44:28;36.33;;;19.38;;
30173;SDS011;16985;50.814;8.530;2022-12-18T12:47:15;38.55;;;21.10;;
30173;SDS011;16985;50.814;8.530;2022-12-18T12:49:46;38.25;;;19.60;;
30173;SDS011;16985;50.814;8.530;2022-12-18T12:57:34;34.03;;;19.63;;
30173;SDS011;16985;50.814;8.530;2022-12-18T13:00:24;39.53;;;19.48;;
30173;SDS011;16985;50.814;8.530;2022-12-18T13:03:29;36.83;;;18.75;;
30173;SDS011;16985;50.814;8.530;2022-12-18T13:06:04;42.40;;;20.23;;
30173;SDS011;16985;50.814;8.530;2022-12-18T13:08:56;39.05;;;18.55;;
30173;SDS011;16985;50.814;8.530;2022-12-18T13:11:32;45.35;;;20.15;;
30173;SDS011;16985;50.814;8.530;2022-12-18T13:14:27;47.53;;;22.98;;
30173;SDS011;16985;50.814;8.530;2022-12-18T13:20:28;43.60;;;22.85;;
30173;SDS011;16985;50.814;8.530;2022-12-18T13:22:44;40.75;;;19.52;;
30173;SDS011;16985;50.814;8.530;2022-12-18T13:25:55;51.03;;;21.35;;
30173;SDS011;16985;50.814;8.530;2022-12-18T13:38:25;42.53;;;21.45;;
30173;SDS011;16985;50.814;8.530;2022-12-18T13:41:00;50.40;;;23.25;;
30173;SDS011;16985;50.814;8.530;2022-12-18T13:43:57;50.80;;;21.95;;
30173;SDS011;16985;50.814;8.530;2022-12-18T13:46:44;53.90;;;24.98;;
30173;SDS011;16985;50.814;8.530;2022-12-18T13:51:42;56.60;;;26.98;;
30173;SDS011;16985;50.814;8.530;2022-12-18T13:57:01;52.08;;;26.08;;
30173;SDS011;16985;50.814;8.530;2022-12-18T13:59:36;53.25;;;24.50;;
30173;SDS011;16985;50.814;8.530;2022-12-18T14:02:14;53.67;;;24.05;;
30173;SDS011;16985;50.814;8.530;2022-12-18T14:04:46;64.47;;;27.52;;
30173;SDS011;16985;50.814;8.530;2022-12-18T14:07:14;53.78;;;26.70;;
30173;SDS011;16985;50.814;8.530;2022-12-18T14:09:45;48.88;;;25.08;;
30173;SDS011;16985;50.814;8.530;2022-12-18T14:12:16;53.88;;;25.77;;
30173;SDS011;16985;50.814;8.530;2022-12-18T14:15:01;60.95;;;29.08;;
30173;SDS011;16985;50.814;8.530;2022-12-18T14:17:28;62.80;;;26.88;;
30173;SDS011;16985;50.814;8.530;2022-12-18T14:19:53;57.80;;;26.70;;
30173;SDS011;16985;50.814;8.530;2022-12-18T14:22:21;58.50;;;28.27;;
30173;SDS011;16985;50.814;8.530;2022-12-18T14:35:39;57.35;;;26.38;;
30173;SDS011;16985;50.814;8.530;2022-12-18T14:38:34;60.03;;;28.55;;
30173;SDS011;16985;50.814;8.530;2022-12-18T14:41:14;57.63;;;28.45;;
30173;SDS011;16985;50.814;8.530;2022-12-18T14:43:42;65.97;;;29.35;;
30173;SDS011;16985;50.814;8.530;2022-12-18T14:49:03;74.40;;;31.05;;
30173;SDS011;16985;50.814;8.530;2022-12-18T14:51:57;59.72;;;28.10;;
30173;SDS011;16985;50.814;8.530;2022-12-18T14:54:53;64.40;;;29.52;;
30173;SDS011;16985;50.814;8.530;2022-12-18T14:57:22;60.20;;;26.92;;
30173;SDS011;16985;50.814;8.530;2022-12-18T14:59:51;71.07;;;28.80;;
30173;SDS011;16985;50.814;8.530;2022-12-18T15:04:47;71.10;;;31.20;;
30173;SDS011;16985;50.814;8.530;2022-12-18T15:07:25;70.68;;;31.98;;
30173;SDS011;16985;50.814;8.530;2022-12-18T15:10:02;96.18;;;39.00;;
30173;SDS011;16985;50.814;8.530;2022-12-18T15:12:41;89.07;;;36.58;;
30173;SDS011;16985;50.814;8.530;2022-12-18T15:23:21;81.03;;;35.38;;
30173;SDS011;16985;50.814;8.530;2022-12-18T15:28:25;84.43;;;36.53;;
30173;SDS011;16985;50.814;8.530;2022-12-18T15:30:58;80.32;;;34.30;;
30173;SDS011;16985;50.814;8.530;2022-12-18T15:33:42;79.03;;;33.78;;
30173;SDS011;16985;50.814;8.530;2022-12-18T15:36:14;79.50;;;32.80;;
30173;SDS011;16985;50.814;8.530;2022-12-18T15:38:43;80.35;;;34.58;;
30173;SDS011;16985;50.814;8.530;2022-12-18T15:41:16;83.20;;;35.50;;
30173;SDS011;16985;50.814;8.530;2022-12-18T15:43:44;84.20;;;34.33;;
30173;SDS011;16985;50.814;8.530;2022-12-18T15:46:12;79.60;;;34.72;;
30173;SDS011;16985;50.814;8.530;2022-12-18T15:48:50;89.72;;;34.47;;
30173;SDS011;16985;50.814;8.530;2022-12-18T15:51:23;88.47;;;35.55;;
30173;SDS011;16985;50.814;8.530;2022-12-18T15:53:54;92.13;;;35.67;;
30173;SDS011;16985;50.814;8.530;2022-12-18T15:56:28;78.78;;;34.67;;
30173;SDS011;16985;50.814;8.530;2022-12-18T15:59:14;83.68;;;32.88;;
30173;SDS011;16985;50.814;8.530;2022-12-18T16:01:43;84.28;;;35.33;;
30173;SDS011;16985;50.814;8.530;2022-12-18T16:04:12;80.80;;;36.10;;
30173;SDS011;16985;50.814;8.530;2022-12-18T16:06:40;83.38;;;36.13;;
30173;SDS011;16985;50.814;8.530;2022-12-18T16:09:06;89.70;;;34.65;;
30173;SDS011;16985;50.814;8.530;2022-12-18T16:11:33;86.85;;;35.53;;
30173;SDS011;16985;50.814;8.530;2022-12-18T16:14:14;77.53;;;33.75;;
30173;SDS011;16985;50.814;8.530;2022-12-18T16:16:44;83.00;;;34.40;;
30173;SDS011;16985;50.814;8.530;2022-12-18T16:21:38;75.15;;;31.77;;
30173;SDS011;16985;50.814;8.530;2022-12-18T16:24:04;67.70;;;30.58;;
30173;SDS011;16985;50.814;8.530;2022-12-18T16:26:30;65.97;;;31.15;;
30173;SDS011;16985;50.814;8.530;2022-12-18T16:28:56;76.57;;;30.45;;
30173;SDS011;16985;50.814;8.530;2022-12-18T16:31:22;73.72;;;30.98;;
30173;SDS011;16985;50.814;8.530;2022-12-18T16:33:48;64.13;;;29.27;;
30173;SDS011;16985;50.814;8.530;2022-12-18T16:36:13;66.13;;;30.33;;
30173;SDS011;16985;50.814;8.530;2022-12-18T16:38:39;72.65;;;33.05;;
30173;SDS011;16985;50.814;8.530;2022-12-18T16:41:15;73.35;;;31.92;;
30173;SDS011;16985;50.814;8.530;2022-12-18T16:43:56;65.97;;;29.67;;
30173;SDS011;16985;50.814;8.530;2022-12-18T16:46:22;75.88;;;32.00;;
30173;SDS011;16985;50.814;8.530;2022-12-18T16:48:48;74.95;;;30.58;;
30173;SDS011;16985;50.814;8.530;2022-12-18T16:51:14;67.68;;;29.50;;
30173;SDS011;16985;50.814;8.530;2022-12-18T16:53:40;74.05;;;30.92;;
30173;SDS011;16985;50.814;8.530;2022-12-18T16:56:06;67.90;;;31.25;;
30173;SDS011;16985;50.814;8.530;2022-12-18T16:58:32;73.82;;;31.65;;
30173;SDS011;16985;50.814;8.530;2022-12-18T17:00:58;65.70;;;29.35;;